createdAt,value
2018-03-20T00:00:06.721Z,21.50
2018-03-20T00:02:35.126Z,21.23
2018-03-20T00:05:02.686Z,21.67
2018-03-20T00:07:30.205Z,21.37
2018-03-20T00:09:57.735Z,23.07
2018-03-20T00:12:25.245Z,20.77
2018-03-20T00:14:52.778Z,20.77
2018-03-20T00:17:20.423Z,20.27
2018-03-20T00:19:47.928Z,20.30
2018-03-20T00:22:15.443Z,20.90
2018-03-20T00:24:43.014Z,19.97
2018-03-20T00:27:10.531Z,20.23
2018-03-20T00:29:38.082Z,20.17
2018-03-20T00:32:06.410Z,21.43
2018-03-20T00:34:34.714Z,20.70
2018-03-20T00:37:02.388Z,21.30
2018-03-20T00:39:30.240Z,22.30
2018-03-20T00:41:58.119Z,20.50
2018-03-20T00:44:25.628Z,20.83
2018-03-20T00:46:53.197Z,20.90
2018-03-20T00:49:20.738Z,20.30
2018-03-20T00:51:48.260Z,21.50
2018-03-20T00:54:15.807Z,21.93
2018-03-20T00:56:44.077Z,25.70
2018-03-20T00:59:12.360Z,22.50
2018-03-20T01:01:40.822Z,21.80
2018-03-20T01:04:08.335Z,21.17
2018-03-20T01:10:57.949Z,20.60
2018-03-20T01:13:26.358Z,22.33
2018-03-20T01:15:53.865Z,19.23
2018-03-20T01:18:21.380Z,22.70
2018-03-20T01:20:48.912Z,21.43
2018-03-20T01:23:17.196Z,21.23
2018-03-20T01:25:45.474Z,22.27
2018-03-20T01:28:13.980Z,22.40
2018-03-20T01:30:41.496Z,21.30
2018-03-20T01:33:09.010Z,18.03
2018-03-20T01:35:36.550Z,18.97
2018-03-20T01:38:04.844Z,18.53
2018-03-20T01:40:33.153Z,20.17
2018-03-20T01:43:00.665Z,18.67
2018-03-20T01:45:28.180Z,16.60
2018-03-20T01:47:55.728Z,18.33
2018-03-20T01:50:23.261Z,18.13
2018-03-20T01:53:03.514Z,17.80
2018-03-20T01:55:31.786Z,18.20
2018-03-20T01:57:59.304Z,17.70
2018-03-20T02:00:26.940Z,18.33
2018-03-20T02:02:55.221Z,20.33
2018-03-20T02:05:23.492Z,20.43
2018-03-20T02:07:51.988Z,20.53
2018-03-20T02:10:19.509Z,20.23
2018-03-20T02:12:47.137Z,22.13
2018-03-20T02:15:14.684Z,23.00
2018-03-20T02:17:42.207Z,22.03
2018-03-20T02:20:11.231Z,22.80
2018-03-20T02:22:39.540Z,21.77
2018-03-20T02:25:07.061Z,20.17
2018-03-20T02:27:34.593Z,21.17
2018-03-20T02:30:02.318Z,20.23
2018-03-20T02:32:29.837Z,20.37
2018-03-20T02:34:57.365Z,19.37
2018-03-20T02:37:24.911Z,19.13
2018-03-20T02:39:52.434Z,19.60
2018-03-20T02:42:19.947Z,19.03
2018-03-20T02:44:47.531Z,18.43
2018-03-20T02:47:15.061Z,18.93
2018-03-20T02:49:42.578Z,19.07
2018-03-20T02:52:10.124Z,18.33
2018-03-20T02:54:37.632Z,20.80
2018-03-20T02:57:05.904Z,18.03
2018-03-20T02:59:33.552Z,18.93
2018-03-20T03:02:01.082Z,18.47
2018-03-20T03:04:28.611Z,18.60
2018-03-20T03:06:56.925Z,18.50
2018-03-20T03:09:24.436Z,18.07
2018-03-20T03:11:51.943Z,17.10
2018-03-20T03:14:19.485Z,17.43
2018-03-20T03:16:47.764Z,18.47
2018-03-20T03:19:16.057Z,17.80
2018-03-20T03:21:44.322Z,17.57
2018-03-20T03:24:12.725Z,17.53
2018-03-20T03:26:40.237Z,16.90
2018-03-20T03:29:07.742Z,16.87
2018-03-20T03:31:36.058Z,16.40
2018-03-20T03:34:03.574Z,16.93
2018-03-20T03:36:31.867Z,15.40
2018-03-20T03:38:59.408Z,15.60
2018-03-20T03:41:26.925Z,14.23
2018-03-20T03:43:54.430Z,15.77
2018-03-20T03:46:21.952Z,14.43
2018-03-20T03:48:49.468Z,14.13
2018-03-20T03:51:17.736Z,15.23
2018-03-20T03:53:45.285Z,14.57
2018-03-20T03:56:12.792Z,15.27
2018-03-20T03:58:41.065Z,15.77
2018-03-20T04:01:09.364Z,16.43
2018-03-20T04:03:36.871Z,15.93
2018-03-20T04:06:04.381Z,15.13
2018-03-20T04:08:32.021Z,14.27
2018-03-20T04:10:59.531Z,15.70
2018-03-20T04:13:27.048Z,16.40
2018-03-20T04:15:55.470Z,15.53
2018-03-20T04:18:22.977Z,15.37
2018-03-20T04:20:50.483Z,15.27
2018-03-20T04:23:18.019Z,15.93
2018-03-20T04:25:46.311Z,14.77
2018-03-20T04:28:14.618Z,12.83
2018-03-20T04:30:42.128Z,13.33
2018-03-20T04:33:09.625Z,14.00
2018-03-20T04:35:37.923Z,15.27
2018-03-20T04:38:05.434Z,15.00
2018-03-20T04:40:32.953Z,14.60
2018-03-20T04:43:00.498Z,14.10
2018-03-20T04:45:28.017Z,13.43
2018-03-20T04:47:55.543Z,15.70
2018-03-20T04:50:23.123Z,14.17
2018-03-20T04:52:50.644Z,14.87
2018-03-20T04:55:18.942Z,16.07
2018-03-20T04:57:46.527Z,15.30
2018-03-20T05:00:14.041Z,15.80
2018-03-20T05:02:42.327Z,15.57
2018-03-20T05:05:10.666Z,16.33
2018-03-20T05:07:38.173Z,16.80
2018-03-20T05:10:06.462Z,15.07
2018-03-20T05:12:34.870Z,14.80
2018-03-20T05:15:02.375Z,15.43
2018-03-20T05:17:29.895Z,13.93
2018-03-20T05:20:13.237Z,15.80
2018-03-20T05:22:56.419Z,15.30
2018-03-20T05:25:24.109Z,15.77
2018-03-20T05:27:51.624Z,16.00
2018-03-20T05:30:19.134Z,15.57
2018-03-20T05:32:46.665Z,16.67
2018-03-20T05:35:14.975Z,17.37
2018-03-20T05:37:42.493Z,14.17
2018-03-20T05:40:10.046Z,14.30
2018-03-20T05:42:37.605Z,14.83
2018-03-20T05:45:05.121Z,14.97
2018-03-20T05:47:35.322Z,15.77
2018-03-20T05:50:09.306Z,15.77
2018-03-20T05:52:36.836Z,14.97
2018-03-20T05:55:04.363Z,13.13
2018-03-20T05:57:32.649Z,13.73
2018-03-20T06:00:00.993Z,15.27
2018-03-20T06:02:28.507Z,13.33
2018-03-20T06:04:56.022Z,14.37
2018-03-20T06:07:23.564Z,14.07
2018-03-20T06:09:51.073Z,13.73
2018-03-20T06:12:19.440Z,13.07
2018-03-20T06:14:47.002Z,14.53
2018-03-20T06:17:14.542Z,13.43
2018-03-20T06:19:42.078Z,14.40
2018-03-20T06:22:09.653Z,16.90
2018-03-20T06:24:37.176Z,18.70
2018-03-20T06:27:05.466Z,19.23
2018-03-20T06:29:33.780Z,16.13
2018-03-20T06:32:01.316Z,15.93
2018-03-20T06:34:28.846Z,15.87
2018-03-20T06:36:56.397Z,20.57
2018-03-20T06:39:23.940Z,19.50
2018-03-20T06:41:51.473Z,20.30
2018-03-20T06:44:19.021Z,20.17
2018-03-20T06:46:47.314Z,18.13
2018-03-20T06:49:14.830Z,17.33
2018-03-20T06:51:42.382Z,20.50
2018-03-20T06:54:09.912Z,20.70
2018-03-20T06:56:37.432Z,21.23
2018-03-20T06:59:04.970Z,21.70
2018-03-20T07:01:32.504Z,20.67
2018-03-20T07:04:00.032Z,21.53
2018-03-20T07:06:27.592Z,22.93
2018-03-20T07:08:55.098Z,25.30
2018-03-20T07:11:22.612Z,24.00
2018-03-20T07:13:50.250Z,23.10
2018-03-20T07:16:17.827Z,22.87
2018-03-20T07:18:45.352Z,21.67
2018-03-20T07:21:13.101Z,22.10
2018-03-20T07:23:41.376Z,18.63
2018-03-20T07:26:09.697Z,23.47
2018-03-20T07:28:37.241Z,23.13
2018-03-20T07:31:04.769Z,24.63
2018-03-20T07:33:32.317Z,26.40
2018-03-20T07:35:59.840Z,25.57
2018-03-20T07:38:27.378Z,27.87
2018-03-20T07:40:55.712Z,29.10
2018-03-20T07:43:23.249Z,24.87
2018-03-20T07:45:50.789Z,26.90
2018-03-20T07:48:18.362Z,28.23
2018-03-20T07:50:45.889Z,29.00
2018-03-20T07:53:14.221Z,28.33
2018-03-20T07:55:41.824Z,29.70
2018-03-20T07:58:09.366Z,25.80
2018-03-20T08:00:36.933Z,29.57
2018-03-20T08:03:04.552Z,27.87
2018-03-20T08:05:32.936Z,28.73
2018-03-20T08:08:01.321Z,28.10
2018-03-20T08:10:29.631Z,25.93
2018-03-20T08:12:57.224Z,23.67
2018-03-20T08:15:24.768Z,27.77
2018-03-20T08:17:52.295Z,23.27
2018-03-20T08:20:20.618Z,22.03
2018-03-20T08:22:48.164Z,26.77
2018-03-20T08:25:15.735Z,22.37
2018-03-20T08:27:43.276Z,28.73
2018-03-20T08:30:10.829Z,28.57
2018-03-20T08:32:39.178Z,18.03
2018-03-20T08:35:06.702Z,13.73
2018-03-20T08:37:34.250Z,13.57
2018-03-20T08:40:01.783Z,14.60
2018-03-20T08:42:30.118Z,14.47
2018-03-20T08:44:57.680Z,14.20
2018-03-20T08:47:25.239Z,16.20
2018-03-20T08:49:52.774Z,14.07
2018-03-20T08:52:20.428Z,14.43
2018-03-20T08:54:47.992Z,18.17
2018-03-20T08:57:16.339Z,13.80
2018-03-20T08:59:44.043Z,15.03
2018-03-20T09:02:12.356Z,15.43
2018-03-20T09:04:39.938Z,14.03
2018-03-20T09:07:07.504Z,13.50
2018-03-20T09:09:35.092Z,11.07
2018-03-20T09:12:02.651Z,12.97
2018-03-20T09:14:30.273Z,14.83
2018-03-20T09:16:57.825Z,15.00
2018-03-20T09:19:26.123Z,15.90
2018-03-20T09:21:53.785Z,13.60
2018-03-20T09:24:21.344Z,12.97
2018-03-20T09:26:48.861Z,13.60
2018-03-20T09:29:17.181Z,14.20
2018-03-20T09:31:45.466Z,14.77
2018-03-20T09:34:13.288Z,14.03
2018-03-20T09:36:41.622Z,13.83
2018-03-20T09:39:09.185Z,15.63
2018-03-20T09:41:36.742Z,13.73
2018-03-20T09:44:04.405Z,17.53
2018-03-20T09:46:32.844Z,14.80
2018-03-20T09:49:00.442Z,15.10
2018-03-20T09:51:28.113Z,12.87
2018-03-20T09:53:56.420Z,12.43
2018-03-20T09:56:23.958Z,12.00
2018-03-20T09:58:52.307Z,10.77
2018-03-20T10:01:19.848Z,11.17
2018-03-20T10:03:47.397Z,12.37
2018-03-20T10:06:14.980Z,11.10
2018-03-20T10:08:42.520Z,11.97
2018-03-20T10:11:10.068Z,11.60
2018-03-20T10:13:37.677Z,12.27
2018-03-20T10:16:05.216Z,12.30
2018-03-20T10:18:32.754Z,11.73
2018-03-20T10:21:01.081Z,11.43
2018-03-20T10:23:28.616Z,14.10
2018-03-20T10:25:56.147Z,12.13
2018-03-20T10:28:23.812Z,13.83
2018-03-20T10:30:52.118Z,9.87
2018-03-20T10:33:20.404Z,11.80
2018-03-20T10:35:47.991Z,11.70
2018-03-20T10:38:15.560Z,13.10
2018-03-20T10:40:43.092Z,12.23
2018-03-20T10:43:10.637Z,12.97
2018-03-20T10:45:38.951Z,13.40
2018-03-20T10:48:06.483Z,15.67
2018-03-20T10:50:34.788Z,19.00
2018-03-20T10:53:02.314Z,18.93
2018-03-20T10:55:29.846Z,18.17
2018-03-20T10:57:57.402Z,16.87
2018-03-20T11:00:30.580Z,17.47
2018-03-20T11:02:58.130Z,15.70
2018-03-20T11:05:25.651Z,13.93
2018-03-20T11:07:53.192Z,13.83
2018-03-20T11:10:20.755Z,15.83
2018-03-20T11:12:48.296Z,17.13
2018-03-20T11:15:15.830Z,14.40
2018-03-20T11:17:44.165Z,14.60
2018-03-20T11:20:11.709Z,12.90
2018-03-20T11:22:39.232Z,12.80
2018-03-20T11:25:07.595Z,10.97
2018-03-20T11:27:35.232Z,11.90
2018-03-20T11:30:03.540Z,12.30
2018-03-20T11:32:31.078Z,12.20
2018-03-20T11:34:58.627Z,12.73
2018-03-20T11:37:26.162Z,11.67
2018-03-20T11:39:54.487Z,11.63
2018-03-20T11:42:22.043Z,12.30
2018-03-20T11:44:49.565Z,11.43
2018-03-20T11:47:17.881Z,13.33
2018-03-20T11:49:45.413Z,13.73
2018-03-20T11:52:13.738Z,13.77
2018-03-20T11:54:41.312Z,12.43
2018-03-20T11:57:08.823Z,14.30
2018-03-20T11:59:37.119Z,11.40
2018-03-20T12:02:04.710Z,13.80
2018-03-20T12:04:32.261Z,11.93
2018-03-20T12:06:59.780Z,13.47
2018-03-20T12:09:50.030Z,13.87
2018-03-20T12:12:17.552Z,14.13
2018-03-20T12:14:45.086Z,18.97
2018-03-20T12:17:13.423Z,14.47
2018-03-20T12:19:40.966Z,14.57
2018-03-20T12:22:08.497Z,14.63
2018-03-20T12:24:36.044Z,14.47
2018-03-20T12:27:03.576Z,16.43
2018-03-20T12:29:31.101Z,15.80
2018-03-20T12:31:59.419Z,15.00
2018-03-20T12:34:26.957Z,14.33
2018-03-20T12:36:55.241Z,15.93
2018-03-20T12:39:22.886Z,15.33
2018-03-20T12:41:50.389Z,13.70
2018-03-20T12:44:17.938Z,14.07
2018-03-20T12:46:45.592Z,14.00
2018-03-20T12:49:13.113Z,14.73
2018-03-20T12:51:40.685Z,15.00
2018-03-20T12:54:08.229Z,16.73
2018-03-20T12:56:35.746Z,14.90
2018-03-20T12:59:04.067Z,15.60
2018-03-20T13:01:31.638Z,14.00
2018-03-20T13:03:59.176Z,13.63
2018-03-20T13:06:26.699Z,16.80
2018-03-20T13:08:54.286Z,14.43
2018-03-20T13:11:22.573Z,12.47
2018-03-20T13:13:50.117Z,13.10
2018-03-20T13:16:18.538Z,12.40
2018-03-20T13:18:46.084Z,13.60
2018-03-20T13:21:13.613Z,13.00
2018-03-20T13:23:41.190Z,13.43
2018-03-20T13:26:09.521Z,12.77
2018-03-20T13:28:37.039Z,13.17
2018-03-20T13:31:05.338Z,13.70
2018-03-20T13:33:32.870Z,13.63
2018-03-20T13:36:00.396Z,15.70
2018-03-20T13:38:27.986Z,12.97
2018-03-20T13:40:55.529Z,13.40
2018-03-20T13:43:23.971Z,12.50
2018-03-20T13:45:52.391Z,13.90
2018-03-20T13:48:19.918Z,14.63
2018-03-20T13:50:52.603Z,12.67
2018-03-20T13:53:18.683Z,12.70
2018-03-20T13:55:46.240Z,13.00
2018-03-20T13:58:13.775Z,12.93
2018-03-20T14:00:41.349Z,14.27
2018-03-20T14:03:08.969Z,13.60
2018-03-20T14:05:37.372Z,19.70
2018-03-20T14:08:05.017Z,14.93
2018-03-20T14:10:32.540Z,19.90
2018-03-20T14:13:00.885Z,13.03
2018-03-20T14:15:28.444Z,18.67
2018-03-20T14:17:55.995Z,13.70
2018-03-20T14:20:24.296Z,16.87
2018-03-20T14:22:51.889Z,16.63
2018-03-20T14:25:19.454Z,15.37
2018-03-20T14:27:47.023Z,14.60
2018-03-20T14:30:14.596Z,17.80
2018-03-20T14:32:42.125Z,12.93
2018-03-20T14:35:09.791Z,11.80
2018-03-20T14:37:37.409Z,12.20
2018-03-20T14:40:04.978Z,12.50
2018-03-20T14:42:32.508Z,13.23
2018-03-20T14:45:00.187Z,11.80
2018-03-20T14:47:27.766Z,13.50
2018-03-20T14:49:55.335Z,14.20
2018-03-20T14:52:22.911Z,14.10
2018-03-20T14:54:51.228Z,13.70
2018-03-20T14:57:18.754Z,12.90
2018-03-20T14:59:47.363Z,13.13
2018-03-20T15:02:14.918Z,17.73
2018-03-20T15:04:43.216Z,20.27
2018-03-20T15:07:10.786Z,18.03
2018-03-20T15:09:38.330Z,15.23
2018-03-20T15:12:06.634Z,16.90
2018-03-20T15:14:34.242Z,19.80
2018-03-20T15:17:01.784Z,16.90
2018-03-20T15:19:29.347Z,17.13
2018-03-20T15:21:56.892Z,15.77
2018-03-20T15:24:24.430Z,13.43
2018-03-20T15:26:52.753Z,13.70
2018-03-20T15:31:47.372Z,14.07
2018-03-20T15:34:14.921Z,13.93
2018-03-20T15:36:42.478Z,12.63
2018-03-20T15:39:10.056Z,12.60
2018-03-20T15:41:37.695Z,11.97
2018-03-20T15:44:05.222Z,13.17
2018-03-20T15:46:32.795Z,12.67
2018-03-20T15:49:01.126Z,11.00
2018-03-20T15:51:29.008Z,12.97
2018-03-20T15:53:56.666Z,13.93
2018-03-20T15:56:24.241Z,11.07
2018-03-20T15:58:51.779Z,12.47
2018-03-20T16:01:19.449Z,12.07
2018-03-20T16:03:46.987Z,11.17
2018-03-20T16:06:15.305Z,10.90
2018-03-20T16:08:43.008Z,11.60
2018-03-20T16:11:11.344Z,11.00
2018-03-20T16:13:38.894Z,10.27
2018-03-20T16:16:06.453Z,11.37
2018-03-20T16:18:33.975Z,10.57
2018-03-20T16:21:01.556Z,15.93
2018-03-20T16:23:29.147Z,12.13
2018-03-20T16:25:56.731Z,12.70
2018-03-20T16:28:24.293Z,14.33
2018-03-20T16:30:51.972Z,14.77
2018-03-20T16:33:19.578Z,14.00
2018-03-20T16:35:47.144Z,40.97
2018-03-20T16:38:14.774Z,13.57
2018-03-20T16:40:42.332Z,15.03
2018-03-20T16:43:09.897Z,15.23
2018-03-20T16:45:37.518Z,14.23
2018-03-20T16:48:05.910Z,55.33
2018-03-20T16:50:34.271Z,16.10
2018-03-20T16:53:01.826Z,14.77
2018-03-20T16:55:29.399Z,12.97
2018-03-20T16:57:57.027Z,20.50
2018-03-20T17:00:24.598Z,17.17
2018-03-20T17:02:52.132Z,19.53
2018-03-20T17:05:19.747Z,21.20
2018-03-20T17:07:47.309Z,19.10
2018-03-20T17:10:14.844Z,20.70
2018-03-20T17:12:42.416Z,20.57
2018-03-20T17:15:10.077Z,19.37
2018-03-20T17:17:37.644Z,20.33
2018-03-20T17:20:05.208Z,22.43
2018-03-20T17:22:32.772Z,21.33
2018-03-20T17:25:00.328Z,21.70
2018-03-20T17:27:27.890Z,20.30
2018-03-20T17:29:55.469Z,21.20
2018-03-20T17:32:23.016Z,28.57
2018-03-20T17:34:50.669Z,29.13
2018-03-20T17:37:18.206Z,26.10
2018-03-20T17:39:46.497Z,27.87
2018-03-20T17:42:14.861Z,30.50
2018-03-20T17:44:43.260Z,32.67
2018-03-20T17:47:10.829Z,31.23
2018-03-20T17:49:39.197Z,34.30
2018-03-20T17:52:07.523Z,35.77
2018-03-20T17:54:35.516Z,33.80
2018-03-20T17:57:03.267Z,32.27
2018-03-20T17:59:30.824Z,32.47
2018-03-20T18:01:58.409Z,31.90
2018-03-20T18:04:26.124Z,31.97
2018-03-20T18:06:54.482Z,31.97
2018-03-20T18:09:22.065Z,31.70
2018-03-20T18:11:50.410Z,31.80
2018-03-20T18:14:17.975Z,33.77
2018-03-20T18:16:45.548Z,32.77
2018-03-20T18:19:13.228Z,34.20
2018-03-20T18:21:41.525Z,34.13
2018-03-20T18:24:09.893Z,38.03
2018-03-20T18:26:37.426Z,49.63
2018-03-20T18:29:05.067Z,57.27
2018-03-20T18:31:32.647Z,67.73
2018-03-20T18:34:00.198Z,55.90
2018-03-20T18:36:27.770Z,51.77
2018-03-20T18:38:55.332Z,50.57
2018-03-20T18:41:22.935Z,54.10
2018-03-20T18:43:50.507Z,56.83
2018-03-20T18:46:18.835Z,55.40
2018-03-20T18:48:46.434Z,75.63
2018-03-20T18:51:13.965Z,88.93
2018-03-20T18:53:41.586Z,70.60
2018-03-20T18:56:09.110Z,58.73
2018-03-20T18:58:36.632Z,53.60
2018-03-20T19:01:04.281Z,55.03
2018-03-20T19:03:32.651Z,43.37
2018-03-20T19:06:00.177Z,42.10
2018-03-20T19:08:27.762Z,41.50
2018-03-20T19:10:55.426Z,44.33
2018-03-20T19:13:22.962Z,49.80
2018-03-20T19:15:50.527Z,48.93
2018-03-20T19:18:18.054Z,54.33
2018-03-20T19:20:46.346Z,46.80
2018-03-20T19:23:14.024Z,54.67
2018-03-20T19:25:41.611Z,42.77
2018-03-20T19:28:09.312Z,40.73
2018-03-20T19:30:37.065Z,44.63
2018-03-20T19:33:04.722Z,39.53
2018-03-20T19:35:32.317Z,44.10
2018-03-20T19:37:59.911Z,44.97
2018-03-20T19:40:27.559Z,45.83
2018-03-20T19:42:55.905Z,44.47
2018-03-20T19:45:23.474Z,42.97
2018-03-20T19:47:51.008Z,45.07
2018-03-20T19:50:18.566Z,44.23
2018-03-20T19:52:46.255Z,45.93
2018-03-20T19:55:13.784Z,46.57
2018-03-20T19:57:41.365Z,45.03
2018-03-20T20:00:09.029Z,47.53
2018-03-20T20:02:36.579Z,51.80
2018-03-20T20:05:04.139Z,52.67
2018-03-20T20:07:31.691Z,49.90
2018-03-20T20:09:59.999Z,48.97
2018-03-20T20:12:27.565Z,50.77
2018-03-20T20:14:55.229Z,47.73
2018-03-20T20:17:22.775Z,52.23
2018-03-20T20:19:51.089Z,52.00
2018-03-20T20:22:18.741Z,56.43
2018-03-20T20:24:46.291Z,64.53
2018-03-20T20:27:13.854Z,99.53
2018-03-20T20:29:41.513Z,114.73
2018-03-20T20:32:09.832Z,114.80
2018-03-20T20:34:37.490Z,119.17
2018-03-20T20:37:05.830Z,114.30
2018-03-20T20:39:34.474Z,121.60
2018-03-20T20:42:02.025Z,139.03
2018-03-20T20:44:29.586Z,150.13
2018-03-20T20:46:57.131Z,162.07
2018-03-20T20:49:24.669Z,145.10
2018-03-20T20:51:52.391Z,155.53
2018-03-20T20:54:19.934Z,154.37
2018-03-20T20:56:47.481Z,162.43
2018-03-20T20:59:15.928Z,151.23
2018-03-20T21:01:43.487Z,150.43
2018-03-20T21:04:11.061Z,140.53
2018-03-20T21:06:38.644Z,141.50
2018-03-20T21:09:06.957Z,140.00
2018-03-20T21:11:34.500Z,132.53
2018-03-20T21:14:02.954Z,126.73
2018-03-20T21:16:30.469Z,130.50
2018-03-20T21:18:57.997Z,125.60
2018-03-20T21:21:26.348Z,127.27
2018-03-20T21:23:53.927Z,131.80
2018-03-20T21:26:21.492Z,130.03
2018-03-20T21:28:49.053Z,126.57
2018-03-20T21:31:16.732Z,117.53
2018-03-20T21:33:44.295Z,117.97
2018-03-20T21:36:12.651Z,117.23
2018-03-20T21:38:40.219Z,126.73
2018-03-20T21:41:07.742Z,126.57
2018-03-20T21:43:35.334Z,130.67
2018-03-20T21:46:02.886Z,128.73
2018-03-20T21:48:30.419Z,129.60
2018-03-20T21:50:58.969Z,126.43
2018-03-20T21:53:26.524Z,122.57
2018-03-20T21:55:54.075Z,122.53
2018-03-20T21:58:21.730Z,123.70
2018-03-20T22:00:49.250Z,122.23
2018-03-20T22:03:17.552Z,123.40
2018-03-20T22:05:45.183Z,124.23
2018-03-20T22:08:12.724Z,118.27
2018-03-20T22:10:40.260Z,116.87
2018-03-20T22:13:07.823Z,116.63
2018-03-20T22:15:35.344Z,116.73
2018-03-20T22:18:02.912Z,121.67
2018-03-20T22:20:30.482Z,118.20
2018-03-20T22:22:58.793Z,125.03
2018-03-20T22:25:26.328Z,129.07
2018-03-20T22:27:54.652Z,127.80
2018-03-20T22:30:22.259Z,132.70
2018-03-20T22:32:50.574Z,127.07
2018-03-20T22:35:18.182Z,139.03
2018-03-20T22:37:45.765Z,137.30
2018-03-20T22:40:13.304Z,133.17
2018-03-20T22:42:40.989Z,131.23
2018-03-20T22:45:08.547Z,134.67
2018-03-20T22:47:36.108Z,124.17
2018-03-20T22:50:03.673Z,125.17
2018-03-20T22:52:31.201Z,129.20
2018-03-20T22:54:58.835Z,132.90
2018-03-20T22:57:27.252Z,130.73
2018-03-20T22:59:54.795Z,143.60
2018-03-20T23:02:23.116Z,140.73
2018-03-20T23:04:50.763Z,145.13
2018-03-20T23:07:18.295Z,135.40
2018-03-20T23:09:46.617Z,123.97
2018-03-20T23:12:14.161Z,124.57
2018-03-20T23:14:41.715Z,118.07
2018-03-20T23:17:09.268Z,118.60
2018-03-20T23:19:37.598Z,117.30
2018-03-20T23:22:05.178Z,118.33
2018-03-20T23:24:32.698Z,116.40
2018-03-20T23:27:00.262Z,117.43
2018-03-20T23:29:27.789Z,116.73
2018-03-20T23:31:55.319Z,115.63
2018-03-20T23:34:22.958Z,114.67
2018-03-20T23:36:50.473Z,113.37
2018-03-20T23:39:18.006Z,111.10
2018-03-20T23:41:45.566Z,114.47
2018-03-20T23:44:13.092Z,111.57
2018-03-20T23:46:40.626Z,111.60
2018-03-20T23:49:08.195Z,112.67
2018-03-20T23:51:35.720Z,115.07
2018-03-20T23:54:03.224Z,113.37
2018-03-20T23:56:30.868Z,111.47
2018-03-20T23:58:58.378Z,109.07
